sensor_id;sensor_type;location;lat;lon;timestamp;temperature;humidity
610;DHT22;292;48.800;9.216;2022-11-23T00:00:37;8.80;73.10
610;DHT22;292;48.800;9.216;2022-11-23T00:03:04;8.70;72.90
610;DHT22;292;48.800;9.216;2022-11-23T00:05:31;8.70;72.90
610;DHT22;292;48.800;9.216;2022-11-23T00:07:58;8.70;72.90
610;DHT22;292;48.800;9.216;2022-11-23T00:10:25;8.70;72.90
610;DHT22;292;48.800;9.216;2022-11-23T00:12:52;8.60;72.80
610;DHT22;292;48.800;9.216;2022-11-23T00:15:20;8.60;72.80
610;DHT22;292;48.800;9.216;2022-11-23T00:17:47;8.60;72.80
610;DHT22;292;48.800;9.216;2022-11-23T00:20:15;8.60;72.80
610;DHT22;292;48.800;9.216;2022-11-23T00:22:42;8.50;72.80
610;DHT22;292;48.800;9.216;2022-11-23T00:25:09;8.50;72.90
610;DHT22;292;48.800;9.216;2022-11-23T00:27:36;8.50;72.90
610;DHT22;292;48.800;9.216;2022-11-23T00:30:03;8.50;72.80
610;DHT22;292;48.800;9.216;2022-11-23T00:32:32;8.50;72.80
610;DHT22;292;48.800;9.216;2022-11-23T00:34:59;8.50;72.80
610;DHT22;292;48.800;9.216;2022-11-23T00:37:26;8.60;72.80
610;DHT22;292;48.800;9.216;2022-11-23T00:39:53;8.50;72.80
610;DHT22;292;48.800;9.216;2022-11-23T00:42:20;8.50;72.90
610;DHT22;292;48.800;9.216;2022-11-23T00:44:47;8.50;72.90
610;DHT22;292;48.800;9.216;2022-11-23T00:47:14;8.50;72.90
610;DHT22;292;48.800;9.216;2022-11-23T00:49:42;8.50;72.90
610;DHT22;292;48.800;9.216;2022-11-23T00:52:09;8.50;72.60
610;DHT22;292;48.800;9.216;2022-11-23T00:54:37;8.50;72.60
610;DHT22;292;48.800;9.216;2022-11-23T00:57:04;8.40;72.80
610;DHT22;292;48.800;9.216;2022-11-23T00:59:31;8.50;72.90
610;DHT22;292;48.800;9.216;2022-11-23T01:01:57;8.50;72.80
610;DHT22;292;48.800;9.216;2022-11-23T01:04:24;8.50;72.80
610;DHT22;292;48.800;9.216;2022-11-23T01:06:54;8.50;72.80
610;DHT22;292;48.800;9.216;2022-11-23T01:09:22;8.50;72.90
610;DHT22;292;48.800;9.216;2022-11-23T01:11:51;8.50;72.90
610;DHT22;292;48.800;9.216;2022-11-23T01:14:19;8.50;72.90
610;DHT22;292;48.800;9.216;2022-11-23T01:16:46;8.50;72.90
610;DHT22;292;48.800;9.216;2022-11-23T01:19:17;8.50;72.90
610;DHT22;292;48.800;9.216;2022-11-23T01:21:44;8.50;72.90
610;DHT22;292;48.800;9.216;2022-11-23T01:24:14;8.50;72.90
610;DHT22;292;48.800;9.216;2022-11-23T01:26:42;8.50;72.90
610;DHT22;292;48.800;9.216;2022-11-23T01:29:11;8.50;72.90
610;DHT22;292;48.800;9.216;2022-11-23T01:31:38;8.50;72.90
610;DHT22;292;48.800;9.216;2022-11-23T01:34:06;8.50;72.80
610;DHT22;292;48.800;9.216;2022-11-23T01:36:34;8.60;72.80
610;DHT22;292;48.800;9.216;2022-11-23T01:39:02;8.60;72.80
610;DHT22;292;48.800;9.216;2022-11-23T01:41:34;8.50;72.80
610;DHT22;292;48.800;9.216;2022-11-23T01:44:24;8.60;72.80
610;DHT22;292;48.800;9.216;2022-11-23T01:46:51;8.60;72.80
610;DHT22;292;48.800;9.216;2022-11-23T01:49:19;8.60;72.80
610;DHT22;292;48.800;9.216;2022-11-23T01:51:50;8.60;72.80
610;DHT22;292;48.800;9.216;2022-11-23T01:54:21;8.60;72.90
610;DHT22;292;48.800;9.216;2022-11-23T01:56:55;8.60;72.80
610;DHT22;292;48.800;9.216;2022-11-23T01:59:25;8.60;72.80
610;DHT22;292;48.800;9.216;2022-11-23T02:01:52;8.60;72.80
610;DHT22;292;48.800;9.216;2022-11-23T02:04:22;8.60;72.80
610;DHT22;292;48.800;9.216;2022-11-23T02:06:51;8.60;72.80
610;DHT22;292;48.800;9.216;2022-11-23T02:09:19;8.60;72.80
610;DHT22;292;48.800;9.216;2022-11-23T02:11:47;8.60;72.80
610;DHT22;292;48.800;9.216;2022-11-23T02:14:16;8.60;72.60
610;DHT22;292;48.800;9.216;2022-11-23T02:16:43;8.60;72.80
610;DHT22;292;48.800;9.216;2022-11-23T02:19:19;8.60;72.80
610;DHT22;292;48.800;9.216;2022-11-23T02:21:51;8.60;72.80
610;DHT22;292;48.800;9.216;2022-11-23T02:24:24;8.60;72.60
610;DHT22;292;48.800;9.216;2022-11-23T02:26:54;8.60;72.60
610;DHT22;292;48.800;9.216;2022-11-23T02:29:23;8.50;72.80
610;DHT22;292;48.800;9.216;2022-11-23T02:31:51;8.50;72.60
610;DHT22;292;48.800;9.216;2022-11-23T02:34:19;8.50;72.80
610;DHT22;292;48.800;9.216;2022-11-23T02:36:48;8.50;72.60
610;DHT22;292;48.800;9.216;2022-11-23T02:39:17;8.50;72.80
610;DHT22;292;48.800;9.216;2022-11-23T02:41:48;8.40;72.80
610;DHT22;292;48.800;9.216;2022-11-23T02:44:28;8.40;72.80
610;DHT22;292;48.800;9.216;2022-11-23T02:46:57;8.40;72.90
610;DHT22;292;48.800;9.216;2022-11-23T02:49:24;8.30;72.90
610;DHT22;292;48.800;9.216;2022-11-23T02:51:51;8.30;73.10
610;DHT22;292;48.800;9.216;2022-11-23T02:54:19;8.30;73.10
610;DHT22;292;48.800;9.216;2022-11-23T02:56:46;8.20;72.90
610;DHT22;292;48.800;9.216;2022-11-23T02:59:13;8.20;72.90
610;DHT22;292;48.800;9.216;2022-11-23T03:01:41;8.10;72.90
610;DHT22;292;48.800;9.216;2022-11-23T03:04:08;8.00;73.10
610;DHT22;292;48.800;9.216;2022-11-23T03:06:36;8.00;73.20
610;DHT22;292;48.800;9.216;2022-11-23T03:09:03;8.00;73.20
610;DHT22;292;48.800;9.216;2022-11-23T03:11:30;8.00;73.20
610;DHT22;292;48.800;9.216;2022-11-23T03:13:57;7.90;73.40
610;DHT22;292;48.800;9.216;2022-11-23T03:16:24;7.90;73.50
610;DHT22;292;48.800;9.216;2022-11-23T03:18:53;7.90;73.50
610;DHT22;292;48.800;9.216;2022-11-23T03:21:20;7.90;73.50
610;DHT22;292;48.800;9.216;2022-11-23T03:23:47;7.90;73.50
610;DHT22;292;48.800;9.216;2022-11-23T03:26:14;7.90;73.70
610;DHT22;292;48.800;9.216;2022-11-23T03:28:41;7.90;73.80
610;DHT22;292;48.800;9.216;2022-11-23T03:31:09;7.90;73.80
610;DHT22;292;48.800;9.216;2022-11-23T03:33:36;7.80;73.80
610;DHT22;292;48.800;9.216;2022-11-23T03:36:05;7.80;73.80
610;DHT22;292;48.800;9.216;2022-11-23T03:38:32;7.80;73.80
610;DHT22;292;48.800;9.216;2022-11-23T03:40:59;7.70;73.80
610;DHT22;292;48.800;9.216;2022-11-23T03:43:26;7.70;73.80
610;DHT22;292;48.800;9.216;2022-11-23T03:45:53;7.70;73.80
610;DHT22;292;48.800;9.216;2022-11-23T03:48:20;7.70;73.90
610;DHT22;292;48.800;9.216;2022-11-23T03:50:47;7.60;73.90
610;DHT22;292;48.800;9.216;2022-11-23T03:53:15;7.60;74.10
610;DHT22;292;48.800;9.216;2022-11-23T03:55:44;7.60;74.20
610;DHT22;292;48.800;9.216;2022-11-23T03:58:11;7.60;74.50
610;DHT22;292;48.800;9.216;2022-11-23T04:00:39;7.50;74.70
610;DHT22;292;48.800;9.216;2022-11-23T04:03:06;7.50;74.70
610;DHT22;292;48.800;9.216;2022-11-23T04:05:33;7.60;74.80
610;DHT22;292;48.800;9.216;2022-11-23T04:08:00;7.60;74.80
610;DHT22;292;48.800;9.216;2022-11-23T04:10:30;7.60;74.80
610;DHT22;292;48.800;9.216;2022-11-23T04:12:57;7.50;74.80
610;DHT22;292;48.800;9.216;2022-11-23T04:15:24;7.50;75.00
610;DHT22;292;48.800;9.216;2022-11-23T04:17:52;7.50;75.10
610;DHT22;292;48.800;9.216;2022-11-23T04:20:20;7.50;75.10
610;DHT22;292;48.800;9.216;2022-11-23T04:22:47;7.40;75.40
610;DHT22;292;48.800;9.216;2022-11-23T04:25:14;7.40;75.40
610;DHT22;292;48.800;9.216;2022-11-23T04:27:42;7.40;75.50
610;DHT22;292;48.800;9.216;2022-11-23T04:30:11;7.40;75.50
610;DHT22;292;48.800;9.216;2022-11-23T04:32:38;7.40;75.70
610;DHT22;292;48.800;9.216;2022-11-23T04:35:05;7.50;75.50
610;DHT22;292;48.800;9.216;2022-11-23T04:37:32;7.50;75.50
610;DHT22;292;48.800;9.216;2022-11-23T04:39:59;7.50;75.50
610;DHT22;292;48.800;9.216;2022-11-23T04:42:26;7.50;75.50
610;DHT22;292;48.800;9.216;2022-11-23T04:44:55;7.60;75.50
610;DHT22;292;48.800;9.216;2022-11-23T04:47:23;7.60;75.40
610;DHT22;292;48.800;9.216;2022-11-23T04:49:49;7.60;75.40
610;DHT22;292;48.800;9.216;2022-11-23T04:52:16;7.60;75.40
610;DHT22;292;48.800;9.216;2022-11-23T04:54:43;7.60;75.20
610;DHT22;292;48.800;9.216;2022-11-23T04:57:10;7.60;75.10
610;DHT22;292;48.800;9.216;2022-11-23T04:59:37;7.60;74.80
610;DHT22;292;48.800;9.216;2022-11-23T05:02:06;7.60;75.00
610;DHT22;292;48.800;9.216;2022-11-23T05:04:33;7.60;75.00
610;DHT22;292;48.800;9.216;2022-11-23T05:07:00;7.50;75.10
610;DHT22;292;48.800;9.216;2022-11-23T05:09:27;7.50;75.00
610;DHT22;292;48.800;9.216;2022-11-23T05:11:54;7.50;74.80
610;DHT22;292;48.800;9.216;2022-11-23T05:14:21;7.50;75.10
610;DHT22;292;48.800;9.216;2022-11-23T05:16:48;7.50;75.00
610;DHT22;292;48.800;9.216;2022-11-23T05:19:17;7.50;75.10
610;DHT22;292;48.800;9.216;2022-11-23T05:21:44;7.50;75.10
610;DHT22;292;48.800;9.216;2022-11-23T05:24:11;7.50;75.10
610;DHT22;292;48.800;9.216;2022-11-23T05:26:38;7.50;75.10
610;DHT22;292;48.800;9.216;2022-11-23T05:29:05;7.50;75.10
610;DHT22;292;48.800;9.216;2022-11-23T05:31:32;7.40;75.20
610;DHT22;292;48.800;9.216;2022-11-23T05:33:59;7.50;75.10
610;DHT22;292;48.800;9.216;2022-11-23T05:36:27;7.40;75.20
610;DHT22;292;48.800;9.216;2022-11-23T05:38:54;7.30;75.20
610;DHT22;292;48.800;9.216;2022-11-23T05:41:21;7.30;75.20
610;DHT22;292;48.800;9.216;2022-11-23T05:43:48;7.30;75.20
610;DHT22;292;48.800;9.216;2022-11-23T05:46:15;7.20;75.40
610;DHT22;292;48.800;9.216;2022-11-23T05:48:43;7.20;75.40
610;DHT22;292;48.800;9.216;2022-11-23T05:51:10;7.20;75.70
610;DHT22;292;48.800;9.216;2022-11-23T05:53:39;7.20;75.70
610;DHT22;292;48.800;9.216;2022-11-23T05:56:06;7.10;75.80
610;DHT22;292;48.800;9.216;2022-11-23T05:58:33;7.10;76.00
610;DHT22;292;48.800;9.216;2022-11-23T06:01:00;7.20;76.10
610;DHT22;292;48.800;9.216;2022-11-23T06:03:27;7.20;76.00
610;DHT22;292;48.800;9.216;2022-11-23T06:05:54;7.20;76.00
610;DHT22;292;48.800;9.216;2022-11-23T06:08:21;7.20;76.00
610;DHT22;292;48.800;9.216;2022-11-23T06:10:50;7.20;76.00
610;DHT22;292;48.800;9.216;2022-11-23T06:13:17;7.20;76.10
610;DHT22;292;48.800;9.216;2022-11-23T06:15:44;7.20;76.10
610;DHT22;292;48.800;9.216;2022-11-23T06:18:11;7.20;76.20
610;DHT22;292;48.800;9.216;2022-11-23T06:20:37;7.30;76.10
610;DHT22;292;48.800;9.216;2022-11-23T06:23:04;7.30;76.10
610;DHT22;292;48.800;9.216;2022-11-23T06:25:31;7.30;76.20
610;DHT22;292;48.800;9.216;2022-11-23T06:28:00;7.30;76.10
610;DHT22;292;48.800;9.216;2022-11-23T06:30:28;7.30;76.10
610;DHT22;292;48.800;9.216;2022-11-23T06:32:55;7.40;76.20
610;DHT22;292;48.800;9.216;2022-11-23T06:35:24;7.50;76.00
610;DHT22;292;48.800;9.216;2022-11-23T06:37:51;7.50;75.80
610;DHT22;292;48.800;9.216;2022-11-23T06:40:19;7.50;75.70
610;DHT22;292;48.800;9.216;2022-11-23T06:42:46;7.50;75.50
610;DHT22;292;48.800;9.216;2022-11-23T06:45:15;7.50;75.40
610;DHT22;292;48.800;9.216;2022-11-23T06:47:42;7.50;75.40
610;DHT22;292;48.800;9.216;2022-11-23T06:50:09;7.50;75.40
610;DHT22;292;48.800;9.216;2022-11-23T06:52:36;7.50;75.40
610;DHT22;292;48.800;9.216;2022-11-23T06:55:04;7.50;75.50
610;DHT22;292;48.800;9.216;2022-11-23T06:57:31;7.50;75.40
610;DHT22;292;48.800;9.216;2022-11-23T06:59:58;7.40;75.70
610;DHT22;292;48.800;9.216;2022-11-23T07:02:27;7.40;75.80
610;DHT22;292;48.800;9.216;2022-11-23T07:04:54;7.50;75.50
610;DHT22;292;48.800;9.216;2022-11-23T07:07:21;7.40;75.80
610;DHT22;292;48.800;9.216;2022-11-23T07:09:48;7.40;75.80
610;DHT22;292;48.800;9.216;2022-11-23T07:12:15;7.50;75.70
610;DHT22;292;48.800;9.216;2022-11-23T07:14:42;7.50;75.70
610;DHT22;292;48.800;9.216;2022-11-23T07:17:09;7.40;75.80
610;DHT22;292;48.800;9.216;2022-11-23T07:19:37;7.50;75.70
610;DHT22;292;48.800;9.216;2022-11-23T07:22:04;7.50;75.50
610;DHT22;292;48.800;9.216;2022-11-23T07:24:31;7.40;75.80
610;DHT22;292;48.800;9.216;2022-11-23T07:26:58;7.40;75.80
610;DHT22;292;48.800;9.216;2022-11-23T07:29:25;7.40;75.70
610;DHT22;292;48.800;9.216;2022-11-23T07:31:52;7.40;75.50
610;DHT22;292;48.800;9.216;2022-11-23T07:34:20;7.40;75.50
610;DHT22;292;48.800;9.216;2022-11-23T07:36:48;7.30;75.50
610;DHT22;292;48.800;9.216;2022-11-23T07:39:15;7.30;75.50
610;DHT22;292;48.800;9.216;2022-11-23T07:41:42;7.30;75.50
610;DHT22;292;48.800;9.216;2022-11-23T07:44:09;7.30;75.70
610;DHT22;292;48.800;9.216;2022-11-23T07:46:36;7.30;75.70
610;DHT22;292;48.800;9.216;2022-11-23T07:49:04;7.20;75.80
610;DHT22;292;48.800;9.216;2022-11-23T07:51:31;7.20;75.80
610;DHT22;292;48.800;9.216;2022-11-23T07:54:00;7.20;75.50
610;DHT22;292;48.800;9.216;2022-11-23T07:56:27;7.20;75.50
610;DHT22;292;48.800;9.216;2022-11-23T07:58:54;7.20;75.50
610;DHT22;292;48.800;9.216;2022-11-23T08:01:21;7.20;75.40
610;DHT22;292;48.800;9.216;2022-11-23T08:03:48;7.20;75.50
610;DHT22;292;48.800;9.216;2022-11-23T08:06:15;7.30;75.40
610;DHT22;292;48.800;9.216;2022-11-23T08:08:42;7.30;75.20
610;DHT22;292;48.800;9.216;2022-11-23T08:11:10;7.30;75.40
610;DHT22;292;48.800;9.216;2022-11-23T08:13:39;7.30;75.40
610;DHT22;292;48.800;9.216;2022-11-23T08:16:06;7.40;75.20
610;DHT22;292;48.800;9.216;2022-11-23T08:18:33;7.50;75.00
610;DHT22;292;48.800;9.216;2022-11-23T08:21:01;7.50;74.70
610;DHT22;292;48.800;9.216;2022-11-23T08:23:28;7.50;74.50
610;DHT22;292;48.800;9.216;2022-11-23T08:25:55;7.60;74.70
610;DHT22;292;48.800;9.216;2022-11-23T08:28:23;7.70;74.40
610;DHT22;292;48.800;9.216;2022-11-23T08:30:50;7.70;74.40
610;DHT22;292;48.800;9.216;2022-11-23T08:33:17;7.80;74.10
610;DHT22;292;48.800;9.216;2022-11-23T08:35:45;7.90;73.80
610;DHT22;292;48.800;9.216;2022-11-23T08:38:12;7.90;73.50
610;DHT22;292;48.800;9.216;2022-11-23T08:40:39;8.00;73.10
610;DHT22;292;48.800;9.216;2022-11-23T08:43:06;8.10;73.20
610;DHT22;292;48.800;9.216;2022-11-23T08:45:35;8.20;73.10
610;DHT22;292;48.800;9.216;2022-11-23T08:48:02;8.30;72.90
610;DHT22;292;48.800;9.216;2022-11-23T08:50:30;8.40;72.50
610;DHT22;292;48.800;9.216;2022-11-23T08:52:59;8.50;72.20
610;DHT22;292;48.800;9.216;2022-11-23T08:55:27;8.60;71.90
610;DHT22;292;48.800;9.216;2022-11-23T08:57:55;8.80;71.60
610;DHT22;292;48.800;9.216;2022-11-23T09:00:22;8.90;71.10
610;DHT22;292;48.800;9.216;2022-11-23T09:02:50;9.00;70.90
610;DHT22;292;48.800;9.216;2022-11-23T09:05:17;9.10;70.60
610;DHT22;292;48.800;9.216;2022-11-23T09:07:44;9.20;70.30
610;DHT22;292;48.800;9.216;2022-11-23T09:10:11;9.40;69.90
610;DHT22;292;48.800;9.216;2022-11-23T09:12:38;9.50;69.60
610;DHT22;292;48.800;9.216;2022-11-23T09:15:06;9.60;69.20
610;DHT22;292;48.800;9.216;2022-11-23T09:17:33;9.70;68.90
610;DHT22;292;48.800;9.216;2022-11-23T09:20:02;9.90;68.60
610;DHT22;292;48.800;9.216;2022-11-23T09:22:30;10.00;68.30
610;DHT22;292;48.800;9.216;2022-11-23T09:24:57;10.20;68.00
610;DHT22;292;48.800;9.216;2022-11-23T09:27:24;10.40;68.00
610;DHT22;292;48.800;9.216;2022-11-23T09:29:51;10.60;67.70
610;DHT22;292;48.800;9.216;2022-11-23T09:32:18;11.00;67.50
610;DHT22;292;48.800;9.216;2022-11-23T09:34:46;11.20;66.40
610;DHT22;292;48.800;9.216;2022-11-23T09:37:14;11.50;66.20
610;DHT22;292;48.800;9.216;2022-11-23T09:39:41;11.90;65.40
610;DHT22;292;48.800;9.216;2022-11-23T09:42:32;12.20;64.30
610;DHT22;292;48.800;9.216;2022-11-23T09:45:13;12.50;63.10
610;DHT22;292;48.800;9.216;2022-11-23T09:48:17;12.80;62.30
610;DHT22;292;48.800;9.216;2022-11-23T09:50:50;13.00;61.10
610;DHT22;292;48.800;9.216;2022-11-23T09:53:25;13.30;60.20
610;DHT22;292;48.800;9.216;2022-11-23T09:55:55;13.50;59.00
610;DHT22;292;48.800;9.216;2022-11-23T09:58:27;13.70;58.10
610;DHT22;292;48.800;9.216;2022-11-23T10:01:00;13.80;56.80
610;DHT22;292;48.800;9.216;2022-11-23T10:03:31;13.90;56.20
610;DHT22;292;48.800;9.216;2022-11-23T10:06:03;14.00;55.60
610;DHT22;292;48.800;9.216;2022-11-23T10:08:40;14.00;55.00
610;DHT22;292;48.800;9.216;2022-11-23T10:11:30;14.20;54.40
610;DHT22;292;48.800;9.216;2022-11-23T10:14:16;14.40;53.70
610;DHT22;292;48.800;9.216;2022-11-23T10:16:52;14.80;53.30
610;DHT22;292;48.800;9.216;2022-11-23T10:19:30;15.20;52.50
610;DHT22;292;48.800;9.216;2022-11-23T10:22:04;15.60;51.40
610;DHT22;292;48.800;9.216;2022-11-23T10:24:41;15.90;50.60
610;DHT22;292;48.800;9.216;2022-11-23T10:27:13;16.30;49.60
610;DHT22;292;48.800;9.216;2022-11-23T10:29:41;16.40;48.80
610;DHT22;292;48.800;9.216;2022-11-23T10:32:19;16.50;48.20
610;DHT22;292;48.800;9.216;2022-11-23T10:34:54;16.60;47.80
610;DHT22;292;48.800;9.216;2022-11-23T10:37:24;16.80;47.60
610;DHT22;292;48.800;9.216;2022-11-23T10:39:52;16.60;46.80
610;DHT22;292;48.800;9.216;2022-11-23T10:42:23;16.60;46.90
610;DHT22;292;48.800;9.216;2022-11-23T10:44:53;16.50;46.60
610;DHT22;292;48.800;9.216;2022-11-23T10:47:39;16.50;47.00
610;DHT22;292;48.800;9.216;2022-11-23T10:50:26;16.50;46.90
610;DHT22;292;48.800;9.216;2022-11-23T10:52:56;16.50;46.90
610;DHT22;292;48.800;9.216;2022-11-23T10:55:29;16.50;46.90
610;DHT22;292;48.800;9.216;2022-11-23T10:57:57;16.50;46.40
610;DHT22;292;48.800;9.216;2022-11-23T11:00:25;16.50;46.20
610;DHT22;292;48.800;9.216;2022-11-23T11:02:54;16.50;46.10
610;DHT22;292;48.800;9.216;2022-11-23T11:05:32;16.50;46.00
610;DHT22;292;48.800;9.216;2022-11-23T11:08:01;16.60;45.40
610;DHT22;292;48.800;9.216;2022-11-23T11:10:37;16.50;45.20
610;DHT22;292;48.800;9.216;2022-11-23T11:13:24;16.40;45.30
610;DHT22;292;48.800;9.216;2022-11-23T11:15:53;16.40;44.90
610;DHT22;292;48.800;9.216;2022-11-23T11:18:20;16.40;44.80
610;DHT22;292;48.800;9.216;2022-11-23T11:20:56;16.40;44.60
610;DHT22;292;48.800;9.216;2022-11-23T11:23:28;16.40;44.60
610;DHT22;292;48.800;9.216;2022-11-23T11:26:18;16.30;44.50
610;DHT22;292;48.800;9.216;2022-11-23T11:28:48;16.30;44.50
610;DHT22;292;48.800;9.216;2022-11-23T11:31:40;16.30;44.80
610;DHT22;292;48.800;9.216;2022-11-23T11:34:19;16.20;44.50
610;DHT22;292;48.800;9.216;2022-11-23T11:36:52;16.10;44.50
610;DHT22;292;48.800;9.216;2022-11-23T11:39:24;16.10;44.10
610;DHT22;292;48.800;9.216;2022-11-23T11:42:00;16.00;44.10
610;DHT22;292;48.800;9.216;2022-11-23T11:44:31;15.90;44.40
610;DHT22;292;48.800;9.216;2022-11-23T11:47:03;15.80;44.20
610;DHT22;292;48.800;9.216;2022-11-23T11:49:39;15.70;44.10
610;DHT22;292;48.800;9.216;2022-11-23T11:52:12;15.50;43.80
610;DHT22;292;48.800;9.216;2022-11-23T11:54:44;15.30;44.10
610;DHT22;292;48.800;9.216;2022-11-23T11:57:20;15.30;44.20
610;DHT22;292;48.800;9.216;2022-11-23T11:59:48;15.20;44.50
610;DHT22;292;48.800;9.216;2022-11-23T12:02:23;15.20;44.40
610;DHT22;292;48.800;9.216;2022-11-23T12:04:59;15.10;44.40
610;DHT22;292;48.800;9.216;2022-11-23T12:07:33;15.10;44.50
610;DHT22;292;48.800;9.216;2022-11-23T12:10:05;15.10;44.50
610;DHT22;292;48.800;9.216;2022-11-23T12:12:42;15.00;44.50
610;DHT22;292;48.800;9.216;2022-11-23T12:15:16;15.00;44.40
610;DHT22;292;48.800;9.216;2022-11-23T12:18:00;15.00;44.50
610;DHT22;292;48.800;9.216;2022-11-23T12:20:38;14.90;44.20
610;DHT22;292;48.800;9.216;2022-11-23T12:23:18;14.80;44.20
610;DHT22;292;48.800;9.216;2022-11-23T12:25:55;14.70;44.10
610;DHT22;292;48.800;9.216;2022-11-23T12:28:42;14.60;44.20
610;DHT22;292;48.800;9.216;2022-11-23T12:31:15;14.50;44.40
610;DHT22;292;48.800;9.216;2022-11-23T12:33:59;14.50;44.40
610;DHT22;292;48.800;9.216;2022-11-23T12:36:44;14.40;44.10
610;DHT22;292;48.800;9.216;2022-11-23T12:39:27;14.40;44.50
610;DHT22;292;48.800;9.216;2022-11-23T12:42:02;14.40;44.60
610;DHT22;292;48.800;9.216;2022-11-23T12:47:44;14.30;44.90
610;DHT22;292;48.800;9.216;2022-11-23T12:50:22;14.30;44.90
610;DHT22;292;48.800;9.216;2022-11-23T12:52:59;14.20;44.60
610;DHT22;292;48.800;9.216;2022-11-23T12:55:34;14.20;44.90
610;DHT22;292;48.800;9.216;2022-11-23T12:58:08;14.20;45.20
610;DHT22;292;48.800;9.216;2022-11-23T13:00:42;14.10;45.00
610;DHT22;292;48.800;9.216;2022-11-23T13:03:40;14.10;45.40
610;DHT22;292;48.800;9.216;2022-11-23T13:09:33;14.10;45.70
610;DHT22;292;48.800;9.216;2022-11-23T13:12:16;14.00;45.70
610;DHT22;292;48.800;9.216;2022-11-23T13:14:54;14.00;46.00
610;DHT22;292;48.800;9.216;2022-11-23T13:17:31;14.00;46.10
610;DHT22;292;48.800;9.216;2022-11-23T13:20:14;14.10;46.10
610;DHT22;292;48.800;9.216;2022-11-23T13:22:46;14.00;46.10
610;DHT22;292;48.800;9.216;2022-11-23T13:25:23;14.00;46.40
610;DHT22;292;48.800;9.216;2022-11-23T13:28:00;14.00;46.20
610;DHT22;292;48.800;9.216;2022-11-23T13:30:30;14.00;46.40
610;DHT22;292;48.800;9.216;2022-11-23T13:35:54;14.00;46.60
610;DHT22;292;48.800;9.216;2022-11-23T13:38:35;14.00;46.60
610;DHT22;292;48.800;9.216;2022-11-23T13:41:03;14.00;46.80
610;DHT22;292;48.800;9.216;2022-11-23T13:43:31;14.00;46.90
610;DHT22;292;48.800;9.216;2022-11-23T13:46:20;14.10;47.00
610;DHT22;292;48.800;9.216;2022-11-23T13:48:50;14.10;47.20
610;DHT22;292;48.800;9.216;2022-11-23T13:51:34;14.10;47.00
610;DHT22;292;48.800;9.216;2022-11-23T13:54:02;14.10;47.00
610;DHT22;292;48.800;9.216;2022-11-23T13:56:31;14.10;47.20
610;DHT22;292;48.800;9.216;2022-11-23T13:59:27;14.10;47.20
610;DHT22;292;48.800;9.216;2022-11-23T14:04:44;14.00;47.40
610;DHT22;292;48.800;9.216;2022-11-23T14:07:16;14.00;47.70
610;DHT22;292;48.800;9.216;2022-11-23T14:09:49;14.00;47.70
610;DHT22;292;48.800;9.216;2022-11-23T14:12:22;13.90;47.70
610;DHT22;292;48.800;9.216;2022-11-23T14:14:57;13.90;47.80
610;DHT22;292;48.800;9.216;2022-11-23T14:18:09;13.90;47.60
610;DHT22;292;48.800;9.216;2022-11-23T14:20:48;13.90;47.40
610;DHT22;292;48.800;9.216;2022-11-23T14:26:24;13.80;47.30
610;DHT22;292;48.800;9.216;2022-11-23T14:29:08;13.80;47.30
610;DHT22;292;48.800;9.216;2022-11-23T14:31:46;13.70;47.30
610;DHT22;292;48.800;9.216;2022-11-23T14:34:24;13.70;47.40
610;DHT22;292;48.800;9.216;2022-11-23T14:36:59;13.70;47.30
610;DHT22;292;48.800;9.216;2022-11-23T14:39:57;13.60;47.30
610;DHT22;292;48.800;9.216;2022-11-23T14:42:28;13.60;47.40
610;DHT22;292;48.800;9.216;2022-11-23T14:45:01;13.50;47.60
610;DHT22;292;48.800;9.216;2022-11-23T14:47:30;13.50;47.80
610;DHT22;292;48.800;9.216;2022-11-23T14:49:57;13.40;47.80
610;DHT22;292;48.800;9.216;2022-11-23T14:52:27;13.30;48.00
610;DHT22;292;48.800;9.216;2022-11-23T14:54:56;13.30;48.00
610;DHT22;292;48.800;9.216;2022-11-23T14:57:29;13.20;48.10
610;DHT22;292;48.800;9.216;2022-11-23T15:00:02;13.10;48.40
610;DHT22;292;48.800;9.216;2022-11-23T15:02:33;13.10;48.50
610;DHT22;292;48.800;9.216;2022-11-23T15:05:05;13.00;48.90
610;DHT22;292;48.800;9.216;2022-11-23T15:07:47;13.00;49.20
610;DHT22;292;48.800;9.216;2022-11-23T15:10:26;12.90;49.30
610;DHT22;292;48.800;9.216;2022-11-23T15:12:56;12.80;49.40
610;DHT22;292;48.800;9.216;2022-11-23T15:15:25;12.80;49.60
610;DHT22;292;48.800;9.216;2022-11-23T15:17:53;12.70;49.70
610;DHT22;292;48.800;9.216;2022-11-23T15:20:22;12.70;49.80
610;DHT22;292;48.800;9.216;2022-11-23T15:22:49;12.60;50.10
610;DHT22;292;48.800;9.216;2022-11-23T15:25:17;12.60;50.20
610;DHT22;292;48.800;9.216;2022-11-23T15:27:45;12.50;50.40
610;DHT22;292;48.800;9.216;2022-11-23T15:30:17;12.50;50.50
610;DHT22;292;48.800;9.216;2022-11-23T15:32:54;12.50;50.60
610;DHT22;292;48.800;9.216;2022-11-23T15:35:23;12.40;50.80
610;DHT22;292;48.800;9.216;2022-11-23T15:37:54;12.40;50.80
610;DHT22;292;48.800;9.216;2022-11-23T15:40:22;12.30;51.20
610;DHT22;292;48.800;9.216;2022-11-23T15:42:50;12.30;51.30
610;DHT22;292;48.800;9.216;2022-11-23T15:45:36;12.20;51.30
610;DHT22;292;48.800;9.216;2022-11-23T15:48:05;12.20;51.40
610;DHT22;292;48.800;9.216;2022-11-23T15:50:44;12.20;51.40
610;DHT22;292;48.800;9.216;2022-11-23T15:53:12;12.10;51.60
610;DHT22;292;48.800;9.216;2022-11-23T15:55:40;12.10;51.60
610;DHT22;292;48.800;9.216;2022-11-23T15:58:08;12.10;51.60
610;DHT22;292;48.800;9.216;2022-11-23T16:00:46;12.00;51.80
610;DHT22;292;48.800;9.216;2022-11-23T16:03:29;12.00;52.00
610;DHT22;292;48.800;9.216;2022-11-23T16:06:23;12.00;52.10
610;DHT22;292;48.800;9.216;2022-11-23T16:08:53;11.90;52.20
610;DHT22;292;48.800;9.216;2022-11-23T16:11:28;11.90;52.40
610;DHT22;292;48.800;9.216;2022-11-23T16:14:18;11.90;52.40
610;DHT22;292;48.800;9.216;2022-11-23T16:17:03;11.80;52.60
610;DHT22;292;48.800;9.216;2022-11-23T16:19:46;11.80;52.60
610;DHT22;292;48.800;9.216;2022-11-23T16:22:22;11.80;52.80
610;DHT22;292;48.800;9.216;2022-11-23T16:24:56;11.70;52.80
610;DHT22;292;48.800;9.216;2022-11-23T16:27:25;11.70;52.80
610;DHT22;292;48.800;9.216;2022-11-23T16:29:53;11.70;52.80
610;DHT22;292;48.800;9.216;2022-11-23T16:32:24;11.60;53.00
610;DHT22;292;48.800;9.216;2022-11-23T16:34:52;11.60;53.00
610;DHT22;292;48.800;9.216;2022-11-23T16:37:19;11.60;53.00
610;DHT22;292;48.800;9.216;2022-11-23T16:39:47;11.60;53.20
610;DHT22;292;48.800;9.216;2022-11-23T16:42:14;11.60;53.20
610;DHT22;292;48.800;9.216;2022-11-23T16:44:42;11.60;53.20
610;DHT22;292;48.800;9.216;2022-11-23T16:47:19;11.60;53.20
610;DHT22;292;48.800;9.216;2022-11-23T16:49:47;11.60;53.30
610;DHT22;292;48.800;9.216;2022-11-23T16:52:15;11.60;53.40
610;DHT22;292;48.800;9.216;2022-11-23T16:54:43;11.50;53.40
610;DHT22;292;48.800;9.216;2022-11-23T16:57:17;11.60;53.60
610;DHT22;292;48.800;9.216;2022-11-23T16:59:47;11.50;53.80
610;DHT22;292;48.800;9.216;2022-11-23T17:02:15;11.60;54.00
610;DHT22;292;48.800;9.216;2022-11-23T17:04:47;11.60;54.20
610;DHT22;292;48.800;9.216;2022-11-23T17:07:14;11.60;54.40
610;DHT22;292;48.800;9.216;2022-11-23T17:09:41;11.60;54.60
610;DHT22;292;48.800;9.216;2022-11-23T17:12:15;11.60;55.00
610;DHT22;292;48.800;9.216;2022-11-23T17:14:45;11.50;55.30
610;DHT22;292;48.800;9.216;2022-11-23T17:17:17;11.60;55.70
610;DHT22;292;48.800;9.216;2022-11-23T17:19:47;11.50;56.00
610;DHT22;292;48.800;9.216;2022-11-23T17:22:15;11.60;56.40